PRINT OUT SECTION, show »

METAR EPBY 211530Z 13006KT 090V170 CAVOK 28/14 Q1013=

METAR EPGD 211530Z 05010KT 020V080 CAVOK 18/09 Q1015 =

METAR EPKK 211530Z 10007KT 080V150 CAVOK 29/18 Q1014 =

METAR EPKT 211530Z 15006KT CAVOK 29/18 Q1014 =

METAR EPLB 211530Z 14004KT 110V170 CAVOK 27/14 Q1016 =

METAR EPLL 211530Z 10004KT 050V140 CAVOK 29/12 Q1014 =

METAR EPML 211530Z AUTO 06004KT 010V120 9999 BKN057/// 30/14 Q1015=

METAR EPMO 211530Z 13004KT 080V160 CAVOK 27/13 Q1015 =

METAR EPPO 211530Z 10008KT CAVOK 27/15 Q1012 =

METAR EPRA 211530Z 13004KT 070V170 CAVOK 27/13 Q1015=

METAR EPRZ 211530Z 10005KT 020V130 CAVOK 28/15 Q1015 =

METAR EPSC 211530Z 07003KT CAVOK 24/16 Q1012 =

METAR EPSY 211530Z 24005KT 200V270 CAVOK 26/10 Q1015=

METAR EPWA 211530Z 14004KT 100V170 CAVOK 26/12 Q1015 NOSIG=

METAR EPWR 211530Z 12012KT CAVOK 31/18 Q1011 =

METAR EPZG 211530Z 08011KT CAVOK 28/17 Q1011 =
 METAR EPLB
Lokalizacja:EPLB Lublin
Czas:15:30 UTC
Średni kierunek wiatru:140 °
Średnia prędkość wiatru:4 węzłów
Kierunek wiatru zmienia się od:110 °
Kierunek wiatru zmienia się do:170 °
CAVOK:Widzialność 10 km i więcej, zjawisko: NIL, zachmurzenie: NSC
Temperatura powietrza:27 °C
Temperatura punktu rosy:14 °C
Ciśnienie QNH:1016 hPa